Terminal Aerodrome Forecast
Issued by NWS

Home | Current Version | Previous Version | Text Only | Print | Product List | Glossary Off
Versions: 1 2 3 4 5 6 7 8 9 10 11 12 13 14

000
FTUS43 KMPX 280535
TAFAXN
TAF
KAXN 280535Z 2806/2906 14005KT P6SM BKN250
     FM281400 19014G25KT P6SM BKN150
     FM281700 18018G28KT P6SM FEW060 BKN170
     FM290100 20009KT P6SM SCT060 BKN100
     FM290500 26005KT P6SM VCSH BKN050 OVC100=

USA.gov is the U.S. government's official web portal to all federal, state and local government web resources and services.